Time;durP1;ratioP1;P1;durP2;ratioP2;P2;SDS_P1;SDS_P2;PMS_P1;PMS_P2;Temp;Humidity;BMP_temperature;BMP_pressure;BME280_temperature;BME280_humidity;BME280_pressure;Samples;Min_cycle;Max_cycle;Signal;HPM_P1;HPM_P2
2022/05/23 00:00:26;;;;;;;4.20;1.90;;;;;;100208.64;;;;107801;1273;28698;-30
2022/05/23 00:03:03;;;;;;;3.80;1.80;;;;;;100207.72;;;;107818;1273;28352;-30
2022/05/23 00:05:30;;;;;;;3.30;1.60;;;;;;100205.92;;;;107816;1273;27267;-30
2022/05/23 00:07:59;;;;;;;3.50;1.60;;;;;;100208.41;;;;107726;1273;28711;-30
2022/05/23 00:10:25;;;;;;;3.50;1.70;;;;;;100213.59;;;;107786;1273;27545;-30
2022/05/23 00:12:52;;;;;;;3.30;1.80;;;;;;100215.46;;;;107731;1273;28673;-30
2022/05/23 00:15:19;;;;;;;3.70;1.60;;;;;;100214.55;;;;107818;1273;27602;-30
2022/05/23 00:17:46;;;;;;;4.70;2.10;;;;;;100212.77;;;;107810;1273;30559;-30
2022/05/23 00:20:15;;;;;;;3.20;1.70;;;;;;100216.11;;;;107794;1273;30804;-30
2022/05/23 00:22:42;;;;;;;4.10;2.00;;;;;;100217.18;;;;107772;1273;27627;-30
2022/05/23 00:25:10;;;;;;;3.40;1.50;;;;;;100217.23;;;;107713;1273;30832;-30
2022/05/23 00:27:40;;;;;;;3.30;1.70;;;;;;100216.36;;;;107810;1273;28736;-30
2022/05/23 00:30:11;;;;;;;4.00;1.50;;;;;;100219.40;;;;107802;1273;28641;-29
2022/05/23 00:35:24;;;;;;;3.30;1.50;;;;;;100219.41;;;;107790;1273;27729;-30
2022/05/23 00:37:56;;;;;;;3.20;1.70;;;;;;100222.66;;;;107826;1273;28733;-30
2022/05/23 00:40:50;;;;;;;3.40;1.50;;;;;;100231.81;;;;107824;1273;26813;-30
2022/05/23 00:43:25;;;;;;;3.30;1.70;;;;;;100235.55;;;;107817;1274;30860;-30
2022/05/23 00:46:00;;;;;;;3.60;1.50;;;;;;100234.98;;;;107789;1275;31115;-32
2022/05/23 00:48:29;;;;;;;4.70;2.10;;;;;;100232.85;;;;107797;1273;28526;-30
2022/05/23 00:51:00;;;;;;;3.50;2.00;;;;;;100232.39;;;;107833;1273;28673;-30
2022/05/23 00:53:47;;;;;;;3.80;1.50;;;;;;100233.81;;;;107814;1273;28851;-31
2022/05/23 00:56:15;;;;;;;3.60;1.90;;;;;;100231.53;;;;107719;1275;28599;-31
2022/05/23 00:58:53;;;;;;;2.90;1.60;;;;;;100229.27;;;;107830;1273;26264;-30
2022/05/23 01:01:25;;;;;;;3.20;1.70;;;;;;100231.27;;;;107779;1273;28577;-30
2022/05/23 01:03:52;;;;;;;3.80;1.80;;;;;;100232.66;;;;107847;1273;28722;-30
2022/05/23 01:06:19;;;;;;;3.30;1.50;;;;;;100231.19;;;;107774;1273;27554;-30
2022/05/23 01:08:48;;;;;;;3.50;1.80;;;;;;100229.39;;;;107772;1273;27919;-30
2022/05/23 01:11:14;;;;;;;3.90;1.60;;;;;;100226.77;;;;107766;1274;28618;-30
2022/05/23 01:13:41;;;;;;;3.60;1.70;;;;;;100230.09;;;;107771;1273;29597;-30
2022/05/23 01:16:08;;;;;;;3.70;1.70;;;;;;100231.09;;;;107814;1273;26437;-30
2022/05/23 01:18:35;;;;;;;3.50;1.80;;;;;;100231.13;;;;107809;1272;28710;-30
2022/05/23 01:21:04;;;;;;;3.70;1.60;;;;;;100234.81;;;;107791;1273;26623;-30
2022/05/23 01:23:49;;;;;;;4.70;1.90;;;;;;100233.56;;;;107700;1273;28489;-30
2022/05/23 01:26:16;;;;;;;3.50;1.70;;;;;;100238.57;;;;107807;1273;28654;-30
2022/05/23 01:28:43;;;;;;;4.20;1.90;;;;;;100245.33;;;;107713;1273;28681;-30
2022/05/23 01:31:13;;;;;;;3.40;1.80;;;;;;100248.00;;;;107803;1273;29164;-30
2022/05/23 01:33:40;;;;;;;4.00;1.90;;;;;;100249.16;;;;107814;1273;30647;-30
2022/05/23 01:36:12;;;;;;;3.30;1.80;;;;;;100249.33;;;;107794;1273;27769;-30
2022/05/23 01:38:39;;;;;;;3.20;1.60;;;;;;100247.75;;;;107803;1273;28671;-30
2022/05/23 01:41:06;;;;;;;3.40;1.70;;;;;;100246.96;;;;107784;1273;30873;-30
2022/05/23 01:43:33;;;;;;;3.20;1.60;;;;;;100245.84;;;;107824;1273;28787;-30
2022/05/23 01:46:00;;;;;;;3.10;1.70;;;;;;100245.20;;;;107810;1273;28714;-30
2022/05/23 01:48:27;;;;;;;3.60;2.00;;;;;;100244.11;;;;107791;1273;26557;-30
2022/05/23 01:50:54;;;;;;;3.00;1.50;;;;;;100244.71;;;;107729;1273;28693;-30
2022/05/23 01:53:20;;;;;;;3.10;1.50;;;;;;100243.52;;;;107793;1273;28499;-30
2022/05/23 01:55:47;;;;;;;3.50;1.90;;;;;;100240.59;;;;107792;1273;31439;-30
2022/05/23 01:58:13;;;;;;;3.70;1.80;;;;;;100239.27;;;;107763;1273;30865;-30
2022/05/23 02:03:25;;;;;;;3.60;1.70;;;;;;100245.16;;;;107765;1273;27366;-30
2022/05/23 02:05:52;;;;;;;3.60;1.90;;;;;;100244.88;;;;107790;1273;28710;-30
2022/05/23 02:08:19;;;;;;;3.90;1.90;;;;;;100241.91;;;;107819;1274;28671;-30
2022/05/23 02:10:45;;;;;;;4.00;1.70;;;;;;100243.23;;;;107801;1273;28212;-29
2022/05/23 02:13:12;;;;;;;3.20;1.60;;;;;;100242.71;;;;107811;1273;28724;-29
2022/05/23 02:15:41;;;;;;;3.10;1.60;;;;;;100241.66;;;;107773;1273;28731;-30
2022/05/23 02:18:07;;;;;;;3.90;1.80;;;;;;100245.29;;;;107708;1273;28689;-30
2022/05/23 02:20:34;;;;;;;3.90;1.70;;;;;;100247.42;;;;107694;1273;28329;-30
2022/05/23 02:23:00;;;;;;;3.30;1.90;;;;;;100244.91;;;;107805;1273;29317;-30
2022/05/23 02:25:27;;;;;;;4.20;1.80;;;;;;100244.11;;;;107800;1273;28643;-30
2022/05/23 02:27:56;;;;;;;3.50;1.60;;;;;;100242.88;;;;107712;1273;27388;-30
2022/05/23 02:30:23;;;;;;;3.80;1.70;;;;;;100243.77;;;;107840;1273;28744;-30
2022/05/23 02:32:50;;;;;;;3.20;1.90;;;;;;100247.52;;;;107846;1273;27799;-30
2022/05/23 02:35:18;;;;;;;3.30;1.90;;;;;;100251.09;;;;107812;1273;29306;-30
2022/05/23 02:37:45;;;;;;;3.50;1.60;;;;;;100251.21;;;;107794;1273;26187;-31
2022/05/23 02:40:12;;;;;;;3.40;1.70;;;;;;100250.79;;;;107804;1273;28643;-30
2022/05/23 02:42:39;;;;;;;3.60;1.70;;;;;;100249.80;;;;107706;1272;28679;-30
2022/05/23 02:45:08;;;;;;;3.10;1.70;;;;;;100247.50;;;;107802;1273;27518;-30
2022/05/23 02:47:35;;;;;;;3.40;1.70;;;;;;100246.60;;;;107788;1273;28680;-30
2022/05/23 02:50:03;;;;;;;3.60;1.90;;;;;;100245.17;;;;107804;1273;29821;-30
2022/05/23 02:52:30;;;;;;;4.50;2.10;;;;;;100248.87;;;;107728;1273;28071;-30
2022/05/23 02:54:56;;;;;;;3.80;1.70;;;;;;100249.48;;;;107794;1273;27663;-30
2022/05/23 02:57:24;;;;;;;3.20;1.70;;;;;;100248.73;;;;107826;1273;29174;-30
2022/05/23 02:59:50;;;;;;;3.60;2.30;;;;;;100248.11;;;;107771;1273;30708;-31
2022/05/23 03:05:03;;;;;;;4.10;1.60;;;;;;100245.02;;;;107796;1273;27804;-30
2022/05/23 03:07:30;;;;;;;3.20;1.60;;;;;;100242.89;;;;107796;1271;30896;-32
2022/05/23 03:09:56;;;;;;;4.00;1.70;;;;;;100241.23;;;;107777;1273;28854;-30
2022/05/23 03:12:23;;;;;;;4.80;1.80;;;;;;100242.09;;;;107777;1273;28713;-33
2022/05/23 03:14:52;;;;;;;3.70;1.60;;;;;;100244.84;;;;107773;1272;26741;-32
2022/05/23 03:17:18;;;;;;;3.30;1.50;;;;;;100244.00;;;;107733;1272;27572;-32
2022/05/23 03:19:45;;;;;;;3.90;1.90;;;;;;100242.14;;;;107781;1273;28677;-32
2022/05/23 03:27:45;;;;;;;3.90;1.90;;;;;;100241.93;;;;107788;1273;27309;-32
2022/05/23 03:30:13;;;;;;;4.20;1.70;;;;;;100241.81;;;;107791;1272;28588;-32
2022/05/23 03:32:39;;;;;;;4.80;2.00;;;;;;100241.48;;;;107789;1273;26082;-32
2022/05/23 03:35:08;;;;;;;4.20;1.90;;;;;;100241.66;;;;107824;1271;27360;-33
2022/05/23 03:37:35;;;;;;;4.10;1.70;;;;;;100240.73;;;;107821;1273;31111;-31
2022/05/23 03:40:05;;;;;;;3.80;2.00;;;;;;100244.80;;;;107831;1273;28037;-32
2022/05/23 03:42:33;;;;;;;3.80;1.90;;;;;;100245.47;;;;107713;1273;27651;-31
2022/05/23 03:45:00;;;;;;;3.70;1.90;;;;;;100246.80;;;;107710;1273;28603;-31
2022/05/23 03:47:26;;;;;;;3.40;1.70;;;;;;100248.31;;;;107783;1273;28701;-32
2022/05/23 03:49:53;;;;;;;3.60;1.90;;;;;;100244.12;;;;107788;1273;27429;-31
2022/05/23 03:52:20;;;;;;;3.50;1.80;;;;;;100241.02;;;;107708;1272;28673;-31
2022/05/23 03:54:47;;;;;;;3.20;1.80;;;;;;100239.89;;;;107772;1273;28699;-31
2022/05/23 03:57:14;;;;;;;3.00;1.70;;;;;;100239.23;;;;107806;1273;28755;-31
2022/05/23 03:59:40;;;;;;;3.40;1.70;;;;;;100239.88;;;;107790;1273;28422;-32
2022/05/23 04:02:07;;;;;;;3.20;1.80;;;;;;100240.61;;;;107813;1273;28650;-32
2022/05/23 04:04:34;;;;;;;3.40;1.80;;;;;;100243.75;;;;107793;1273;27729;-32
2022/05/23 04:07:04;;;;;;;3.70;2.00;;;;;;100246.33;;;;107775;1273;30842;-32
2022/05/23 04:09:32;;;;;;;3.90;1.90;;;;;;100248.86;;;;107704;1273;28667;-32
2022/05/23 04:11:59;;;;;;;3.20;1.70;;;;;;100252.10;;;;107797;1273;29140;-32
2022/05/23 04:14:26;;;;;;;3.90;1.80;;;;;;100254.15;;;;107782;1273;26171;-33
2022/05/23 04:16:54;;;;;;;3.60;1.90;;;;;;100258.06;;;;107795;1272;28639;-32
2022/05/23 04:19:21;;;;;;;3.40;1.80;;;;;;100261.39;;;;107786;1273;28613;-32
2022/05/23 04:21:48;;;;;;;3.50;1.90;;;;;;100263.05;;;;107820;1273;27545;-31
2022/05/23 04:24:17;;;;;;;3.30;1.70;;;;;;100262.95;;;;107822;1271;30966;-32
2022/05/23 04:26:44;;;;;;;3.10;1.70;;;;;;100263.91;;;;107832;1273;30787;-32
2022/05/23 04:29:11;;;;;;;3.10;1.80;;;;;;100263.07;;;;107802;1273;28748;-32
2022/05/23 04:31:38;;;;;;;3.40;1.70;;;;;;100264.39;;;;107797;1273;28675;-33
2022/05/23 04:36:50;;;;;;;4.50;2.00;;;;;;100263.80;;;;107725;1272;28773;-32
2022/05/23 04:39:17;;;;;;;3.40;1.80;;;;;;100261.64;;;;107784;1273;27776;-32
2022/05/23 04:41:45;;;;;;;3.60;1.80;;;;;;100259.02;;;;107792;1272;30643;-32
2022/05/23 04:44:11;;;;;;;3.20;1.80;;;;;;100256.10;;;;107803;1273;28675;-32
2022/05/23 04:49:41;;;;;;;3.10;1.60;;;;;;100254.73;;;;107801;1273;28574;-32
2022/05/23 04:52:13;;;;;;;3.90;1.80;;;;;;100253.64;;;;107779;1271;27657;-32
2022/05/23 04:54:41;;;;;;;3.30;1.70;;;;;;100257.80;;;;107814;1272;28691;-33
2022/05/23 04:57:10;;;;;;;3.60;1.70;;;;;;100257.63;;;;107814;1273;27776;-32
2022/05/23 04:59:38;;;;;;;4.50;1.90;;;;;;100255.98;;;;107818;1273;26460;-33
2022/05/23 05:02:05;;;;;;;3.50;1.60;;;;;;100257.09;;;;107798;1273;27671;-32
2022/05/23 05:04:32;;;;;;;4.10;2.10;;;;;;100254.23;;;;107797;1273;27647;-32
2022/05/23 05:06:59;;;;;;;5.40;2.40;;;;;;100253.95;;;;107811;1272;28624;-32
2022/05/23 05:09:26;;;;;;;3.60;1.90;;;;;;100255.62;;;;107827;1273;28619;-33
2022/05/23 05:11:53;;;;;;;3.60;2.00;;;;;;100256.17;;;;107810;1273;28607;-32
2022/05/23 05:14:20;;;;;;;3.70;1.90;;;;;;100253.65;;;;107789;1273;27852;-32
2022/05/23 05:16:46;;;;;;;3.50;1.70;;;;;;100253.45;;;;107806;1273;30759;-32
2022/05/23 05:19:13;;;;;;;3.90;2.00;;;;;;100255.41;;;;107697;1273;28655;-32
2022/05/23 05:21:40;;;;;;;4.90;2.10;;;;;;100257.73;;;;107786;1273;27290;-32
2022/05/23 05:24:07;;;;;;;9.90;4.20;;;;;;100263.45;;;;107803;1273;28789;-32
2022/05/23 05:26:33;;;;;;;10.50;4.50;;;;;;100264.45;;;;107534;1272;319370;-32
2022/05/23 05:29:00;;;;;;;11.00;4.60;;;;;;100264.08;;;;107668;1274;30668;-32
2022/05/23 05:31:37;;;;;;;10.00;4.10;;;;;;100263.50;;;;107787;1273;28712;-32
2022/05/23 05:34:35;;;;;;;10.50;4.10;;;;;;100265.20;;;;107783;1273;30885;-32
2022/05/23 05:37:16;;;;;;;13.80;4.30;;;;;;100263.33;;;;107777;1273;27345;-32
2022/05/23 05:39:44;;;;;;;11.00;4.20;;;;;;100261.50;;;;107773;1273;29864;-32
2022/05/23 05:42:18;;;;;;;9.70;4.20;;;;;;100259.80;;;;107830;1272;30837;-32
2022/05/23 05:44:51;;;;;;;13.90;4.40;;;;;;100262.93;;;;107765;1273;30749;-33
2022/05/23 05:47:19;;;;;;;8.00;3.60;;;;;;100263.92;;;;107780;1273;27508;-33
2022/05/23 05:49:54;;;;;;;11.40;4.10;;;;;;100263.23;;;;107796;1273;27390;-32
2022/05/23 05:52:24;;;;;;;8.60;3.90;;;;;;100264.35;;;;107782;1273;28652;-32
2022/05/23 05:54:51;;;;;;;10.20;5.40;;;;;;100265.16;;;;107791;1272;28713;-33
2022/05/23 05:57:18;;;;;;;8.60;3.70;;;;;;100265.91;;;;107786;1273;28607;-32
2022/05/23 05:59:45;;;;;;;8.00;3.60;;;;;;100262.12;;;;107704;1273;30508;-32
2022/05/23 06:02:12;;;;;;;8.30;3.90;;;;;;100260.94;;;;107788;1272;27669;-32
2022/05/23 06:04:38;;;;;;;7.90;3.80;;;;;;100263.46;;;;107787;1273;28794;-32
2022/05/23 06:12:36;;;;;;;8.30;3.90;;;;;;100269.54;;;;107786;1273;28527;-32
2022/05/23 06:15:03;;;;;;;8.50;4.20;;;;;;100270.48;;;;107812;1273;27240;-32
2022/05/23 06:17:30;;;;;;;7.80;3.40;;;;;;100267.50;;;;107809;1273;28858;-32
2022/05/23 06:19:57;;;;;;;7.20;3.30;;;;;;100263.89;;;;107774;1273;27831;-32
2022/05/23 06:22:26;;;;;;;8.90;3.40;;;;;;100267.69;;;;107783;1273;26414;-32
2022/05/23 06:24:52;;;;;;;8.90;3.70;;;;;;100268.19;;;;107722;1273;28692;-32
2022/05/23 06:27:19;;;;;;;9.20;3.70;;;;;;100266.38;;;;107770;1273;28152;-32
2022/05/23 06:29:46;;;;;;;7.10;3.90;;;;;;100266.65;;;;107793;1273;27861;-32
2022/05/23 06:32:16;;;;;;;9.90;5.00;;;;;;100268.31;;;;107800;1273;30938;-30
2022/05/23 06:34:43;;;;;;;14.10;10.20;;;;;;100272.38;;;;107784;1273;27770;-32
2022/05/23 06:37:10;;;;;;;11.60;9.60;;;;;;100272.55;;;;107790;1272;28665;-32
2022/05/23 06:39:36;;;;;;;12.50;9.90;;;;;;100273.09;;;;107793;1273;28470;-32
2022/05/23 06:42:05;;;;;;;11.40;9.10;;;;;;100272.23;;;;107823;1273;28385;-32
2022/05/23 06:44:32;;;;;;;11.30;8.30;;;;;;100276.62;;;;107825;1273;28629;-32
2022/05/23 06:46:59;;;;;;;13.10;9.00;;;;;;100277.20;;;;107823;1273;27566;-33
2022/05/23 06:49:26;;;;;;;10.40;8.40;;;;;;100278.17;;;;107794;1273;28668;-32
2022/05/23 06:51:53;;;;;;;12.00;8.20;;;;;;100279.11;;;;107809;1273;27571;-32
2022/05/23 06:54:22;;;;;;;11.60;7.70;;;;;;100285.11;;;;107790;1273;28774;-32
2022/05/23 06:56:50;;;;;;;10.40;8.00;;;;;;100281.61;;;;107821;1273;28645;-32
2022/05/23 06:59:19;;;;;;;10.00;7.30;;;;;;100279.91;;;;107788;1273;27533;-32
2022/05/23 07:01:46;;;;;;;11.50;7.80;;;;;;100281.54;;;;107749;1273;27375;-32
2022/05/23 07:04:13;;;;;;;10.40;7.10;;;;;;100278.80;;;;107817;1272;28555;-32
2022/05/23 07:14:40;;;;;;;10.70;7.80;;;;;;100279.20;;;;107789;1273;28705;-32
2022/05/23 07:17:07;;;;;;;12.90;8.70;;;;;;100282.83;;;;107695;1273;27545;-32
2022/05/23 07:19:39;;;;;;;9.80;7.90;;;;;;100286.12;;;;107764;1272;28778;-30
2022/05/23 07:22:06;;;;;;;10.60;8.30;;;;;;100289.72;;;;107743;1271;27649;-27
2022/05/23 07:24:32;;;;;;;12.00;8.20;;;;;;100290.45;;;;107825;1271;26120;-29
2022/05/23 07:27:00;;;;;;;10.60;8.30;;;;;;100288.41;;;;107796;1271;28749;-29
2022/05/23 07:29:28;;;;;;;12.50;9.00;;;;;;100293.41;;;;107804;1271;28547;-30
2022/05/23 07:31:57;;;;;;;11.20;8.10;;;;;;100293.92;;;;107830;1271;28317;-30
2022/05/23 07:34:23;;;;;;;10.10;8.00;;;;;;100289.11;;;;107810;1271;27831;-30
2022/05/23 07:36:50;;;;;;;11.30;7.30;;;;;;100288.41;;;;107763;1271;28774;-30
2022/05/23 07:39:17;;;;;;;9.90;7.50;;;;;;100287.35;;;;107771;1271;27558;-30
2022/05/23 07:41:44;;;;;;;10.00;7.80;;;;;;100281.58;;;;107762;1271;28205;-30
2022/05/23 07:44:12;;;;;;;10.30;7.50;;;;;;100284.64;;;;107802;1271;28788;-28
2022/05/23 07:46:42;;;;;;;9.00;7.30;;;;;;100282.95;;;;107818;1271;27589;-29
2022/05/23 07:49:09;;;;;;;9.70;7.60;;;;;;100284.88;;;;107811;1271;29853;-29
2022/05/23 07:51:36;;;;;;;9.50;7.40;;;;;;100280.83;;;;107826;1273;28133;-30
2022/05/23 08:02:19;;;;;;;9.10;6.70;;;;;;100276.94;;;;107787;1271;30765;-29
2022/05/23 08:04:48;;;;;;;8.60;6.90;;;;;;100275.63;;;;107763;1272;28045;-29
2022/05/23 08:07:14;;;;;;;8.60;6.90;;;;;;100275.48;;;;107778;1271;26036;-29
2022/05/23 08:09:41;;;;;;;9.90;7.10;;;;;;100272.63;;;;107780;1271;28708;-29
2022/05/23 08:12:11;;;;;;;9.10;6.90;;;;;;100272.15;;;;107772;1271;28717;-28
2022/05/23 08:14:38;;;;;;;9.90;6.80;;;;;;100272.73;;;;107787;1271;28661;-29
2022/05/23 08:17:05;;;;;;;9.20;6.70;;;;;;100272.27;;;;107791;1271;28709;-29
2022/05/23 08:19:32;;;;;;;8.70;6.60;;;;;;100278.09;;;;107775;1271;27637;-29
2022/05/23 08:21:59;;;;;;;8.60;6.00;;;;;;100281.36;;;;107759;1273;28757;-30
2022/05/23 08:24:26;;;;;;;8.90;6.20;;;;;;100272.76;;;;107675;1271;30850;-30
2022/05/23 08:26:53;;;;;;;8.90;6.10;;;;;;100273.59;;;;107772;1271;30637;-29
2022/05/23 08:29:20;;;;;;;9.00;4.90;;;;;;100271.93;;;;107762;1271;28275;-29
2022/05/23 08:31:48;;;;;;;8.00;5.60;;;;;;100269.71;;;;107775;1270;30484;-29
2022/05/23 08:34:15;;;;;;;8.70;5.40;;;;;;100268.99;;;;107797;1272;28702;-29
2022/05/23 08:36:42;;;;;;;9.10;6.00;;;;;;100270.77;;;;107773;1271;28720;-29
2022/05/23 08:39:09;;;;;;;8.40;5.80;;;;;;100269.15;;;;107781;1271;28638;-29
2022/05/23 08:41:41;;;;;;;8.40;6.10;;;;;;100271.73;;;;107793;1272;28512;-29
2022/05/23 08:44:44;;;;;;;7.90;5.50;;;;;;100269.11;;;;107782;1271;26061;-29
2022/05/23 08:47:55;;;;;;;7.30;4.80;;;;;;100270.84;;;;107587;1271;29498;-29
2022/05/23 08:50:48;;;;;;;7.30;5.40;;;;;;100271.02;;;;107648;1273;29943;-29
2022/05/23 08:53:23;;;;;;;8.40;5.30;;;;;;100268.86;;;;107680;1272;28614;-29
2022/05/23 08:55:55;;;;;;;8.30;6.10;;;;;;100268.66;;;;107696;1273;27367;-29
2022/05/23 08:58:41;;;;;;;8.60;5.60;;;;;;100270.52;;;;107740;1271;28834;-31
2022/05/23 09:01:15;;;;;;;8.30;5.10;;;;;;100268.73;;;;107742;1273;30870;-30
2022/05/23 09:03:48;;;;;;;8.70;5.60;;;;;;100264.08;;;;107765;1271;28265;-30
2022/05/23 09:06:29;;;;;;;;;;;;;;100265.23;;;;107806;1273;28534;-30
2022/05/23 09:09:04;;;;;;;7.50;5.20;;;;;;100264.92;;;;107780;1271;28648;-30
2022/05/23 09:11:54;;;;;;;7.90;5.00;;;;;;100264.15;;;;107762;1271;26053;-30
2022/05/23 09:14:21;;;;;;;7.40;5.00;;;;;;100255.61;;;;107744;1272;30807;-30
2022/05/23 09:16:51;;;;;;;7.60;4.70;;;;;;100257.79;;;;107823;1271;28615;-30
2022/05/23 09:20:16;;;;;;;7.90;5.10;;;;;;100256.36;;;;107808;1271;28611;-30
2022/05/23 09:22:49;;;;;;;7.60;5.30;;;;;;100257.66;;;;107788;1271;28628;-31
2022/05/23 09:25:26;;;;;;;8.10;5.10;;;;;;100254.45;;;;107796;1271;30794;-31
2022/05/23 09:28:24;;;;;;;8.30;4.50;;;;;;100252.30;;;;107762;1271;28728;-30
2022/05/23 09:31:30;;;;;;;6.80;4.30;;;;;;100250.65;;;;107765;1271;28749;-30
2022/05/23 09:33:57;;;;;;;7.30;4.20;;;;;;100243.14;;;;107750;1271;27279;-30
2022/05/23 09:36:31;;;;;;;8.00;4.50;;;;;;100238.52;;;;107775;1271;28670;-28
2022/05/23 09:39:04;;;;;;;7.00;4.80;;;;;;100236.23;;;;107773;1272;28535;-30
2022/05/23 09:50:09;;;;;;;6.00;4.20;;;;;;100219.27;;;;107799;1271;28682;-30
2022/05/23 09:52:43;;;;;;;6.80;3.90;;;;;;100219.98;;;;107793;1271;27510;-30
2022/05/23 09:55:16;;;;;;;6.80;4.20;;;;;;100222.64;;;;107794;1271;28642;-30
2022/05/23 09:57:52;;;;;;;6.80;4.00;;;;;;100222.59;;;;107803;1271;27485;-30
2022/05/23 10:00:25;;;;;;;8.50;4.60;;;;;;100222.27;;;;107765;1273;28568;-30
2022/05/23 10:02:57;;;;;;;6.70;4.10;;;;;;100218.69;;;;107768;1271;28623;-30
2022/05/23 10:05:43;;;;;;;5.50;3.80;;;;;;100215.95;;;;107777;1273;26048;-31
2022/05/23 10:08:30;;;;;;;6.00;3.70;;;;;;100215.69;;;;107709;1273;29628;-31
2022/05/23 10:11:01;;;;;;;6.20;3.50;;;;;;100217.03;;;;107701;1272;26133;-34
2022/05/23 10:13:31;;;;;;;5.70;3.30;;;;;;100215.33;;;;107763;1272;30815;-29
2022/05/23 10:16:10;;;;;;;6.20;3.70;;;;;;100217.14;;;;107835;1273;29112;-30
2022/05/23 10:18:50;;;;;;;6.00;3.60;;;;;;100211.25;;;;107783;1273;26166;-31
2022/05/23 10:21:27;;;;;;;6.80;3.50;;;;;;100214.88;;;;107802;1272;27439;-30
2022/05/23 10:24:12;;;;;;;7.20;4.00;;;;;;100213.02;;;;107777;1273;27546;-30
2022/05/23 10:26:55;;;;;;;6.30;3.50;;;;;;100214.61;;;;107783;1272;27836;-30
2022/05/23 10:29:28;;;;;;;6.30;3.70;;;;;;100215.39;;;;107776;1271;28711;-29
2022/05/23 10:32:10;;;;;;;5.80;3.70;;;;;;100213.91;;;;107787;1273;27427;-29
2022/05/23 10:34:41;;;;;;;6.10;3.50;;;;;;100213.00;;;;107791;1273;30370;-31
2022/05/23 10:37:20;;;;;;;4.60;2.90;;;;;;100207.35;;;;107777;1271;28539;-31
2022/05/23 10:42:54;;;;;;;4.70;2.80;;;;;;100205.54;;;;107782;1270;28611;-29
2022/05/23 10:45:48;;;;;;;5.20;2.90;;;;;;100206.19;;;;107905;1271;29985;-29
2022/05/23 10:48:56;;;;;;;;;;;;;;100203.83;;;;107735;1271;28656;-29
2022/05/23 10:52:02;;;;;;;4.70;2.80;;;;;;100197.91;;;;107810;1271;28704;-29
2022/05/23 10:54:51;;;;;;;4.90;2.90;;;;;;100198.31;;;;107757;1271;28002;-27
2022/05/23 10:58:16;;;;;;;4.60;2.90;;;;;;100193.79;;;;107818;1270;28714;-28
2022/05/23 11:01:03;;;;;;;5.40;2.90;;;;;;100179.93;;;;107735;1271;30551;-29
2022/05/23 11:04:00;;;;;;;5.20;2.90;;;;;;100178.66;;;;107941;1271;28710;-29
2022/05/23 11:06:40;;;;;;;4.80;3.10;;;;;;100177.71;;;;107681;1271;28735;-29
2022/05/23 11:09:24;;;;;;;4.30;2.60;;;;;;100171.65;;;;107755;1272;28642;-29
2022/05/23 11:12:35;;;;;;;5.50;3.20;;;;;;100174.08;;;;107805;1271;27789;-29
2022/05/23 11:15:27;;;;;;;5.20;2.90;;;;;;100175.49;;;;107844;1271;28658;-29
2022/05/23 11:18:41;;;;;;;4.40;2.50;;;;;;100171.71;;;;107803;1271;30965;-30
2022/05/23 11:21:20;;;;;;;4.10;2.50;;;;;;100167.80;;;;107926;1271;28669;-29
2022/05/23 11:23:56;;;;;;;5.30;2.60;;;;;;100171.43;;;;107808;1271;28679;-30
2022/05/23 11:26:31;;;;;;;4.70;2.70;;;;;;100169.58;;;;107908;1270;27774;-29
2022/05/23 11:34:51;;;;;;;5.00;2.50;;;;;;100167.83;;;;107881;1271;28631;-30
2022/05/23 11:40:06;;;;;;;4.90;2.50;;;;;;100165.02;;;;107916;1270;30609;-30
2022/05/23 11:42:42;;;;;;;5.00;2.40;;;;;;100164.28;;;;107860;1271;28502;-30
2022/05/23 11:48:41;;;;;;;5.10;2.60;;;;;;100161.94;;;;107728;1271;30519;-30
2022/05/23 11:51:23;;;;;;;5.80;2.70;;;;;;100162.59;;;;107824;1271;30872;-30
2022/05/23 11:53:56;;;;;;;5.40;2.50;;;;;;100164.54;;;;107925;1271;28639;-30
2022/05/23 11:56:51;;;;;;;4.20;2.30;;;;;;100163.98;;;;107880;1271;28634;-29
2022/05/23 11:59:24;;;;;;;6.10;2.60;;;;;;100155.41;;;;107811;1271;27760;-30
2022/05/23 12:02:12;;;;;;;4.00;2.30;;;;;;100153.57;;;;107865;1271;30302;-30
2022/05/23 12:04:48;;;;;;;4.00;2.30;;;;;;100147.86;;;;107864;1270;27481;-30
2022/05/23 12:07:41;;;;;;;4.30;2.40;;;;;;100146.92;;;;107811;1272;28624;-30
2022/05/23 12:10:36;;;;;;;4.50;2.70;;;;;;100145.71;;;;107824;1271;30476;-30
2022/05/23 12:13:36;;;;;;;4.60;2.20;;;;;;100140.29;;;;107852;1271;28533;-30
2022/05/23 12:16:31;;;;;;;4.20;2.20;;;;;;100134.27;;;;107842;1271;27649;-28
2022/05/23 12:19:14;;;;;;;4.00;2.30;;;;;;100134.61;;;;107852;1271;27644;-29
2022/05/23 12:21:45;;;;;;;4.10;2.30;;;;;;100134.56;;;;107935;1270;28488;-30
2022/05/23 12:24:17;;;;;;;5.00;2.40;;;;;;100134.42;;;;107852;1271;27919;-30
2022/05/23 12:26:50;;;;;;;4.60;2.50;;;;;;100134.65;;;;107882;1271;30020;-30
2022/05/23 12:29:36;;;;;;;4.70;2.70;;;;;;100135.23;;;;107833;1271;30804;-31
2022/05/23 12:32:25;;;;;;;5.50;3.70;;;;;;100131.55;;;;107831;1272;28671;-31
2022/05/23 12:34:56;;;;;;;8.40;6.60;;;;;;100132.57;;;;107859;1271;27721;-28
2022/05/23 12:37:27;;;;;;;10.10;8.50;;;;;;100132.22;;;;107957;1271;28640;-30
2022/05/23 12:40:22;;;;;;;9.90;8.00;;;;;;100125.85;;;;107820;1270;28923;-29
2022/05/23 12:43:29;;;;;;;11.80;9.70;;;;;;100124.48;;;;107862;1271;27812;-29
2022/05/23 12:46:18;;;;;;;10.90;9.40;;;;;;100123.11;;;;107783;1271;27589;-28
2022/05/23 12:49:09;;;;;;;12.80;10.80;;;;;;100118.60;;;;107839;1271;28656;-30
2022/05/23 12:52:20;;;;;;;12.00;10.00;;;;;;100118.69;;;;107921;1271;29869;-30
2022/05/23 12:55:10;;;;;;;12.90;9.40;;;;;;100117.10;;;;107817;1271;30906;-30
2022/05/23 12:57:57;;;;;;;12.80;10.30;;;;;;100111.80;;;;107806;1271;28465;-30
2022/05/23 13:00:32;;;;;;;12.40;9.60;;;;;;100108.46;;;;107888;1271;28574;-30
2022/05/23 13:03:24;;;;;;;10.40;9.10;;;;;;100111.81;;;;107800;1273;28602;-30
2022/05/23 13:06:20;;;;;;;10.30;9.20;;;;;;100108.02;;;;107964;1271;28702;-30
2022/05/23 13:09:11;;;;;;;10.50;8.90;;;;;;100108.61;;;;107880;1271;28754;-30
2022/05/23 13:12:07;;;;;;;11.50;9.70;;;;;;100105.86;;;;107781;1271;27915;-30
2022/05/23 13:14:53;;;;;;;19.80;15.20;;;;;;100109.13;;;;107821;1271;27394;-30
2022/05/23 13:17:37;;;;;;;29.70;22.60;;;;;;100104.71;;;;107772;1271;30774;-29
2022/05/23 13:23:23;;;;;;;32.20;27.10;;;;;;100097.86;;;;107775;1271;28882;-29
2022/05/23 13:25:51;;;;;;;29.00;22.80;;;;;;100094.89;;;;107770;1271;213633;-30
2022/05/23 13:28:19;;;;;;;38.70;30.90;;;;;;100088.60;;;;107765;1271;28616;-30
2022/05/23 13:30:53;;;;;;;36.00;29.40;;;;;;100087.97;;;;107886;1271;28682;-30
2022/05/23 13:33:26;;;;;;;37.50;30.00;;;;;;100085.78;;;;107905;1270;27469;-30
2022/05/23 13:36:03;;;;;;;36.00;28.90;;;;;;100086.25;;;;107790;1271;28859;-30
2022/05/23 13:38:33;;;;;;;29.70;24.60;;;;;;100086.52;;;;107891;1273;26797;-30
2022/05/23 13:41:03;;;;;;;31.00;24.00;;;;;;100086.89;;;;107880;1271;28607;-30
2022/05/23 13:43:59;;;;;;;29.40;23.60;;;;;;100086.77;;;;107814;1272;27393;-30
2022/05/23 13:46:40;;;;;;;26.70;21.20;;;;;;100083.19;;;;107790;1271;26129;-30
2022/05/23 13:49:13;;;;;;;23.80;20.10;;;;;;100080.11;;;;107898;1271;28970;-30
2022/05/23 13:51:51;;;;;;;;;;;;;;100079.13;;;;107815;1272;28755;-30
2022/05/23 13:54:32;;;;;;;26.30;18.70;;;;;;100077.63;;;;107913;1271;27628;-30
2022/05/23 13:57:08;;;;;;;24.30;18.30;;;;;;100079.03;;;;107888;1271;27330;-30
2022/05/23 13:59:59;;;;;;;25.70;19.20;;;;;;100080.20;;;;107820;1271;27999;-30
2022/05/23 14:02:31;;;;;;;23.60;18.30;;;;;;100079.20;;;;107829;1271;30494;-30
2022/05/23 14:04:58;;;;;;;22.20;17.20;;;;;;100075.33;;;;107869;1271;30767;-29
2022/05/23 14:07:29;;;;;;;24.80;19.20;;;;;;100072.17;;;;107772;1271;27626;-30
2022/05/23 14:09:56;;;;;;;23.30;17.40;;;;;;100069.77;;;;107814;1271;28586;-30
2022/05/23 14:12:30;;;;;;;19.00;14.90;;;;;;100067.54;;;;107906;1271;30259;-30
2022/05/23 14:15:00;;;;;;;21.60;15.30;;;;;;100064.84;;;;107743;1273;28727;-29
2022/05/23 14:17:32;;;;;;;18.50;14.80;;;;;;100066.33;;;;107923;1271;28708;-29
2022/05/23 14:20:23;;;;;;;17.70;13.60;;;;;;100067.33;;;;107823;1272;30657;-29
2022/05/23 14:23:11;;;;;;;19.00;14.00;;;;;;100067.96;;;;107862;1271;28622;-30